createdAt,value
2023-03-15T00:01:28.224Z,21.27
2023-03-15T00:03:56.910Z,16.70
2023-03-15T00:06:25.959Z,15.90
2023-03-15T00:08:54.600Z,12.75
2023-03-15T00:11:24.676Z,16.80
2023-03-15T00:13:53.330Z,16.02
2023-03-15T00:16:22.010Z,19.02
2023-03-15T00:18:51.024Z,17.77
2023-03-15T00:21:19.684Z,18.73
2023-03-15T00:23:48.474Z,20.38
2023-03-15T00:26:17.326Z,18.17
2023-03-15T00:28:47.490Z,18.25
2023-03-15T00:31:20.593Z,16.93
2023-03-15T00:33:53.850Z,15.18
2023-03-15T00:36:25.839Z,13.85
2023-03-15T00:38:57.734Z,16.95
2023-03-15T00:41:26.857Z,14.88
2023-03-15T00:43:56.937Z,15.77
2023-03-15T00:46:25.576Z,19.42
2023-03-15T00:48:54.370Z,16.70
2023-03-15T00:51:25.781Z,15.50
2023-03-15T00:53:55.466Z,14.27
2023-03-15T00:56:30.098Z,15.53
2023-03-15T00:59:01.479Z,17.73
2023-03-15T01:01:32.008Z,21.90
2023-03-15T01:04:01.467Z,21.42
2023-03-15T01:06:31.081Z,18.63
2023-03-15T01:09:01.775Z,15.83
2023-03-15T01:11:30.669Z,10.32
2023-03-15T01:14:03.651Z,8.52
2023-03-15T01:16:33.255Z,8.10
2023-03-15T01:19:02.392Z,11.68
2023-03-15T01:21:31.241Z,9.40
2023-03-15T01:23:59.919Z,9.13
2023-03-15T01:26:28.566Z,11.70
2023-03-15T01:28:57.310Z,9.93
2023-03-15T01:31:31.897Z,11.85
2023-03-15T01:34:01.894Z,8.27
2023-03-15T01:36:33.953Z,9.70
2023-03-15T01:39:02.922Z,8.20
2023-03-15T01:41:43.112Z,7.10
2023-03-15T01:44:16.502Z,7.82
2023-03-15T01:46:48.061Z,8.07
2023-03-15T01:49:27.811Z,10.98
2023-03-15T01:52:02.436Z,8.00
2023-03-15T01:54:47.498Z,9.15
2023-03-15T01:57:24.124Z,9.88
2023-03-15T02:00:01.028Z,9.30
2023-03-15T02:02:31.790Z,10.30
2023-03-15T02:05:10.044Z,9.35
2023-03-15T02:07:50.185Z,13.50
2023-03-15T02:10:32.036Z,11.68
2023-03-15T02:13:03.705Z,10.97
2023-03-15T02:15:33.093Z,13.15
2023-03-15T02:18:06.608Z,11.43
2023-03-15T02:21:05.895Z,9.15
2023-03-15T02:23:36.030Z,10.60
2023-03-15T02:26:20.213Z,11.87
2023-03-15T02:28:51.821Z,11.85
2023-03-15T02:31:22.431Z,12.50
2023-03-15T02:33:53.253Z,22.55
2023-03-15T02:36:26.982Z,69.82
2023-03-15T02:38:57.490Z,17.33
2023-03-15T02:41:33.330Z,14.95
2023-03-15T02:44:13.220Z,17.02
2023-03-15T02:46:43.778Z,12.70
2023-03-15T02:49:17.123Z,48.00
2023-03-15T02:51:45.892Z,64.50
2023-03-15T02:54:14.622Z,72.70
2023-03-15T02:56:43.308Z,24.88
2023-03-15T02:59:13.462Z,18.83
2023-03-15T03:01:46.038Z,20.70
2023-03-15T03:04:14.967Z,16.60
2023-03-15T03:06:45.369Z,12.18
2023-03-15T03:09:18.113Z,13.85
2023-03-15T03:11:46.945Z,15.88
2023-03-15T03:14:17.515Z,12.18
2023-03-15T03:16:46.635Z,11.80
2023-03-15T03:19:15.451Z,13.63
2023-03-15T03:21:45.326Z,16.63
2023-03-15T03:24:16.149Z,11.68
2023-03-15T03:26:46.299Z,22.05
2023-03-15T03:29:17.754Z,21.33
2023-03-15T03:31:51.268Z,12.30
2023-03-15T03:34:22.519Z,40.25
2023-03-15T03:36:52.476Z,15.13
2023-03-15T03:39:31.725Z,18.60
2023-03-15T03:42:02.767Z,14.37
2023-03-15T03:44:33.080Z,53.50
2023-03-15T03:47:02.361Z,72.60
2023-03-15T03:49:31.157Z,28.30
2023-03-15T03:52:01.403Z,20.60
2023-03-15T03:54:32.177Z,13.83
2023-03-15T03:57:01.299Z,21.95
2023-03-15T03:59:35.950Z,13.75
2023-03-15T04:02:07.798Z,14.40
2023-03-15T04:04:37.386Z,12.77
2023-03-15T04:07:07.198Z,11.17
2023-03-15T04:09:38.904Z,14.13
2023-03-15T04:12:08.594Z,10.55
2023-03-15T04:14:40.487Z,13.25
2023-03-15T04:17:12.644Z,12.45
2023-03-15T04:19:46.864Z,15.37
2023-03-15T04:22:18.270Z,11.50
2023-03-15T04:25:26.966Z,11.43
2023-03-15T04:28:11.910Z,10.00
2023-03-15T04:31:14.795Z,10.23
2023-03-15T04:34:19.181Z,12.47
2023-03-15T04:37:16.880Z,9.27
2023-03-15T04:40:18.165Z,9.77
2023-03-15T04:43:15.931Z,9.80
2023-03-15T04:46:18.343Z,9.82
2023-03-15T04:49:08.584Z,8.50
2023-03-15T04:51:52.492Z,8.30
2023-03-15T04:54:42.382Z,10.10
2023-03-15T04:57:33.163Z,8.60
2023-03-15T05:00:14.760Z,9.40
2023-03-15T05:03:23.455Z,7.63
2023-03-15T05:06:22.549Z,9.55
2023-03-15T05:09:04.064Z,11.40
2023-03-15T05:11:53.539Z,8.77
2023-03-15T05:14:45.226Z,10.65
2023-03-15T05:17:33.729Z,10.00
2023-03-15T05:20:10.160Z,10.07
2023-03-15T05:22:54.389Z,10.52
2023-03-15T05:25:43.688Z,11.82
2023-03-15T05:28:33.557Z,10.52
2023-03-15T05:31:11.936Z,9.40
2023-03-15T05:34:16.833Z,10.40
2023-03-15T05:37:07.223Z,9.48
2023-03-15T05:39:46.400Z,11.52
2023-03-15T05:42:37.915Z,9.80
2023-03-15T05:45:22.042Z,10.50
2023-03-15T05:48:24.599Z,9.95
2023-03-15T05:51:07.564Z,10.55
2023-03-15T05:53:51.105Z,10.65
2023-03-15T05:56:45.622Z,9.10
2023-03-15T05:59:17.203Z,11.10
2023-03-15T06:02:05.940Z,13.80
2023-03-15T06:04:43.971Z,9.70
2023-03-15T06:07:17.087Z,11.07
2023-03-15T06:09:47.122Z,9.85
2023-03-15T06:12:16.303Z,12.67
2023-03-15T06:14:45.286Z,11.25
2023-03-15T06:17:14.096Z,11.35
2023-03-15T06:19:47.460Z,12.30
2023-03-15T06:22:20.113Z,14.23
2023-03-15T06:24:56.380Z,12.63
2023-03-15T06:27:25.970Z,10.90
2023-03-15T06:29:57.583Z,12.70
2023-03-15T06:32:26.738Z,9.65
2023-03-15T06:34:55.557Z,8.80
2023-03-15T06:37:34.690Z,9.53
2023-03-15T06:40:08.876Z,10.48
2023-03-15T06:42:38.983Z,10.30
2023-03-15T06:45:10.602Z,10.02
2023-03-15T06:47:39.635Z,10.35
2023-03-15T06:50:10.273Z,8.77
2023-03-15T06:52:39.050Z,13.82
2023-03-15T06:55:12.563Z,13.90
2023-03-15T06:57:44.648Z,12.85
2023-03-15T07:00:17.234Z,14.15
2023-03-15T07:02:46.014Z,11.57
2023-03-15T07:05:14.857Z,8.60
2023-03-15T07:07:43.598Z,9.75
2023-03-15T07:10:14.059Z,7.70
2023-03-15T07:12:45.009Z,9.50
2023-03-15T07:15:25.215Z,7.83
2023-03-15T07:17:54.000Z,9.38
2023-03-15T07:20:22.753Z,9.60
2023-03-15T07:22:52.792Z,12.25
2023-03-15T07:25:24.330Z,14.45
2023-03-15T07:27:56.316Z,14.80
2023-03-15T07:30:26.368Z,16.77
2023-03-15T07:32:58.793Z,15.80
2023-03-15T07:35:30.359Z,12.07
2023-03-15T07:37:59.878Z,11.80
2023-03-15T07:40:38.234Z,10.30
2023-03-15T07:43:08.229Z,10.48
2023-03-15T07:45:37.239Z,9.30
2023-03-15T07:48:11.295Z,6.93
2023-03-15T07:51:02.496Z,6.72
2023-03-15T07:53:31.431Z,8.00
2023-03-15T07:56:02.801Z,8.10
2023-03-15T07:58:31.553Z,9.15
2023-03-15T08:01:00.794Z,7.00
2023-03-15T08:03:29.662Z,6.78
2023-03-15T08:05:58.355Z,8.03
2023-03-15T08:08:27.543Z,9.23
2023-03-15T08:10:57.037Z,8.45
2023-03-15T08:13:27.694Z,8.70
2023-03-15T08:15:56.936Z,7.13
2023-03-15T08:18:25.614Z,7.67
2023-03-15T08:20:55.083Z,10.00
2023-03-15T08:23:24.413Z,9.27
2023-03-15T08:25:53.147Z,8.85
2023-03-15T08:28:22.202Z,8.02
2023-03-15T08:30:52.896Z,8.83
2023-03-15T08:33:23.531Z,10.45
2023-03-15T08:35:56.660Z,10.93
2023-03-15T08:38:31.446Z,9.80
2023-03-15T08:41:00.542Z,9.63
2023-03-15T08:43:29.344Z,12.00
2023-03-15T08:46:01.464Z,11.65
2023-03-15T08:48:31.587Z,12.40
2023-03-15T08:51:05.223Z,13.10
2023-03-15T08:53:36.058Z,12.88
2023-03-15T08:56:11.565Z,14.00
2023-03-15T08:58:40.358Z,12.32
2023-03-15T09:01:13.558Z,10.73
2023-03-15T09:03:46.378Z,14.20
2023-03-15T09:06:16.339Z,14.80
2023-03-15T09:08:49.086Z,9.83
2023-03-15T09:11:20.879Z,9.57
2023-03-15T09:14:05.507Z,14.23
2023-03-15T09:16:40.471Z,7.70
2023-03-15T09:19:12.775Z,9.10
2023-03-15T09:21:45.106Z,11.93
2023-03-15T09:24:16.125Z,11.00
2023-03-15T09:26:45.005Z,9.30
2023-03-15T09:29:15.243Z,7.10
2023-03-15T09:31:45.788Z,2.45
2023-03-15T09:34:16.253Z,1.50
2023-03-15T09:36:44.917Z,2.58
2023-03-15T09:39:13.610Z,2.75
2023-03-15T09:41:47.076Z,1.80
2023-03-15T09:44:36.759Z,1.55
2023-03-15T09:47:26.135Z,0.47
2023-03-15T09:50:01.248Z,1.73
2023-03-15T09:52:44.008Z,1.73
2023-03-15T09:55:22.409Z,1.60
2023-03-15T09:58:08.230Z,1.23
2023-03-15T10:00:43.067Z,1.37
2023-03-15T10:03:22.870Z,2.45
2023-03-15T10:05:58.091Z,1.00
2023-03-15T10:08:27.134Z,1.00
2023-03-15T10:11:21.759Z,1.52
2023-03-15T10:14:14.339Z,1.30
2023-03-15T10:16:47.493Z,1.80
2023-03-15T10:19:31.279Z,1.60
2023-03-15T10:22:06.278Z,1.13
2023-03-15T10:24:45.567Z,2.28
2023-03-15T10:27:24.424Z,1.23
2023-03-15T10:29:58.101Z,1.05
2023-03-15T10:32:32.457Z,2.35
2023-03-15T10:35:05.145Z,2.25
2023-03-15T10:37:36.404Z,1.45
2023-03-15T10:40:16.646Z,3.00
2023-03-15T10:43:03.472Z,3.03
2023-03-15T10:45:48.651Z,1.88
2023-03-15T10:48:17.840Z,3.78
2023-03-15T10:50:59.060Z,2.00
2023-03-15T10:53:57.978Z,2.73
2023-03-15T10:56:33.638Z,2.15
2023-03-15T10:59:13.159Z,2.00
2023-03-15T11:01:56.564Z,1.73
2023-03-15T11:04:33.779Z,2.63
2023-03-15T11:07:08.751Z,3.93
2023-03-15T11:09:46.496Z,4.93
2023-03-15T11:12:26.142Z,2.05
2023-03-15T11:15:05.889Z,2.47
2023-03-15T11:17:44.605Z,3.17
2023-03-15T11:20:34.233Z,2.50
2023-03-15T11:23:17.074Z,2.88
2023-03-15T11:25:51.417Z,2.53
2023-03-15T11:28:27.450Z,1.27
2023-03-15T11:31:01.172Z,2.38
2023-03-15T11:33:45.108Z,2.10
2023-03-15T11:36:22.722Z,3.08
2023-03-15T11:39:08.793Z,2.47
2023-03-15T11:41:47.968Z,2.00
2023-03-15T11:45:11.308Z,2.25
2023-03-15T11:47:58.810Z,3.60
2023-03-15T11:50:30.326Z,1.00
2023-03-15T11:53:07.566Z,4.22
2023-03-15T11:55:54.350Z,4.07
2023-03-15T11:58:36.686Z,2.03
2023-03-15T12:01:12.507Z,1.80
2023-03-15T12:03:46.316Z,0.82
2023-03-15T12:06:40.725Z,1.42
2023-03-15T12:10:02.728Z,3.25
2023-03-15T12:13:03.441Z,3.05
2023-03-15T12:16:00.836Z,3.47
2023-03-15T12:18:48.102Z,7.07
2023-03-15T12:21:23.725Z,2.58
2023-03-15T12:24:06.574Z,1.98
2023-03-15T12:27:01.003Z,2.05
2023-03-15T12:29:34.258Z,3.00
2023-03-15T12:32:13.656Z,2.67
2023-03-15T12:34:52.983Z,2.65
2023-03-15T12:37:25.948Z,1.58
2023-03-15T12:40:05.247Z,2.20
2023-03-15T12:43:22.625Z,3.53
2023-03-15T12:45:56.875Z,1.50
2023-03-15T12:48:32.386Z,1.40
2023-03-15T12:51:38.773Z,2.00
2023-03-15T12:54:15.401Z,1.10
2023-03-15T12:56:52.695Z,7.23
2023-03-15T12:59:36.852Z,1.25
2023-03-15T13:02:45.641Z,1.73
2023-03-15T13:05:21.685Z,2.25
2023-03-15T13:08:00.318Z,1.13
2023-03-15T13:10:48.062Z,1.93
2023-03-15T13:13:52.735Z,2.85
2023-03-15T13:16:33.323Z,1.70
2023-03-15T13:19:17.592Z,1.65
2023-03-15T13:22:13.247Z,0.65
2023-03-15T13:24:59.039Z,1.33
2023-03-15T13:27:47.595Z,1.45
2023-03-15T13:30:34.929Z,5.32
2023-03-15T13:33:16.116Z,1.38
2023-03-15T13:35:49.798Z,1.55
2023-03-15T13:38:29.556Z,1.30
2023-03-15T13:41:00.616Z,0.75
2023-03-15T13:43:33.278Z,3.50
2023-03-15T13:46:02.685Z,19.58
2023-03-15T13:48:34.380Z,8.60
2023-03-15T13:51:09.925Z,5.50
2023-03-15T13:53:49.514Z,2.28
2023-03-15T13:56:31.036Z,1.88
